Time;durP1;ratioP1;P1;durP2;ratioP2;P2;SDS_P1;SDS_P2;PMS_P1;PMS_P2;Temp;Humidity;BMP_temperature;BMP_pressure;BME280_temperature;BME280_humidity;BME280_pressure;Samples;Min_cycle;Max_cycle;Signal;HPM_P1;HPM_P2
2021/07/31 00:01:44;;;;;;;2.40;1.17;;;;;;;18.29;55.21;99361.59;5054891;28;20049;-63
2021/07/31 00:04:11;;;;;;;4.10;1.00;;;;;;;18.22;55.05;99373.63;5054401;28;20548;-63
2021/07/31 00:06:38;;;;;;;4.60;1.15;;;;;;;18.28;55.22;99364.81;5055035;28;20056;-63
2021/07/31 00:09:07;;;;;;;2.30;0.93;;;;;;;18.36;54.54;99360.84;5055063;28;20045;-64
2021/07/31 00:11:34;;;;;;;4.70;1.10;;;;;;;18.15;55.19;99367.94;5054757;28;20446;-63
2021/07/31 00:14:02;;;;;;;4.05;1.48;;;;;;;18.12;55.03;99360.28;5054353;28;20056;-63
2021/07/31 00:16:29;;;;;;;4.00;1.27;;;;;;;18.25;54.59;99355.94;5054887;28;20061;-63
2021/07/31 00:18:56;;;;;;;4.65;1.27;;;;;;;18.26;54.49;99354.72;5054644;28;20068;-64
2021/07/31 00:21:24;;;;;;;3.30;1.20;;;;;;;18.22;53.94;99367.97;5054551;28;20056;-63
2021/07/31 00:23:51;;;;;;;3.72;1.33;;;;;;;18.15;54.37;99362.31;5054465;28;20401;-63
2021/07/31 00:26:20;;;;;;;5.90;1.50;;;;;;;18.05;54.79;99357.41;5054946;28;20045;-63
2021/07/31 00:28:47;;;;;;;4.53;1.27;;;;;;;17.85;55.58;99354.06;5054408;28;20053;-63
2021/07/31 00:31:15;;;;;;;5.53;1.30;;;;;;;18.02;54.92;99352.56;5054592;28;20053;-63
2021/07/31 00:33:42;;;;;;;3.55;1.38;;;;;;;18.08;54.85;99353.81;5053768;28;20060;-63
2021/07/31 00:36:09;;;;;;;3.80;1.23;;;;;;;17.87;55.50;99356.47;5053904;28;20060;-63
2021/07/31 00:38:37;;;;;;;3.88;1.40;;;;;;;18.04;55.11;99350.19;5054554;28;20509;-63
2021/07/31 00:41:04;;;;;;;2.65;1.20;;;;;;;17.73;56.06;99357.16;5054385;28;20072;-63
2021/07/31 00:43:33;;;;;;;3.67;1.52;;;;;;;17.87;55.77;99353.66;5053771;28;20099;-63
2021/07/31 00:46:00;;;;;;;5.80;1.60;;;;;;;17.98;55.42;99351.75;5054256;28;20052;-63
2021/07/31 00:48:28;;;;;;;4.50;1.15;;;;;;;17.94;55.13;99365.00;5053996;28;20064;-63
2021/07/31 00:50:58;;;;;;;5.45;1.65;;;;;;;17.93;55.30;99364.19;5054380;28;20052;-63
2021/07/31 00:53:26;;;;;;;7.75;1.10;;;;;;;17.88;55.39;99363.75;5053637;28;20056;-63
2021/07/31 00:55:56;;;;;;;3.58;1.10;;;;;;;17.84;55.38;99364.50;5054067;28;20052;-63
2021/07/31 00:58:25;;;;;;;3.80;1.23;;;;;;;17.92;55.51;99353.31;5054277;28;20053;-64
2021/07/31 01:00:53;;;;;;;3.80;1.23;;;;;;;17.93;55.36;99360.53;5054681;28;20049;-63
2021/07/31 01:03:21;;;;;;;4.15;1.02;;;;;;;17.92;55.42;99365.38;5053904;28;20059;-64
2021/07/31 01:05:48;;;;;;;3.97;1.30;;;;;;;17.95;55.35;99358.94;5053686;28;20047;-63
2021/07/31 01:08:16;;;;;;;2.72;1.25;;;;;;;17.84;55.64;99361.69;5053847;28;20057;-63
2021/07/31 01:10:44;;;;;;;2.58;1.23;;;;;;;18.04;55.27;99361.44;5038422;28;20463;-63
2021/07/31 01:13:12;;;;;;;2.80;1.30;;;;;;;18.02;55.43;99358.22;5034320;28;20057;-63
2021/07/31 01:16:00;;;;;;;3.97;1.10;;;;;;;18.08;55.01;99361.44;5049750;28;20052;-63
2021/07/31 01:18:28;;;;;;;2.65;0.98;;;;;;;18.15;54.66;99367.94;5053788;28;20057;-63
2021/07/31 01:20:55;;;;;;;3.08;1.10;;;;;;;18.07;55.10;99365.47;5054022;28;20072;-63
2021/07/31 01:23:24;;;;;;;4.18;1.27;;;;;;;18.14;55.07;99360.72;5053148;28;20049;-63
2021/07/31 01:25:51;;;;;;;4.90;1.17;;;;;;;18.15;54.78;99372.78;5053369;28;20055;-63
2021/07/31 01:28:19;;;;;;;3.78;1.10;;;;;;;18.19;55.11;99374.41;5053461;28;20475;-63
2021/07/31 01:30:46;;;;;;;4.28;1.40;;;;;;;18.03;55.47;99371.88;5053719;28;20049;-63
2021/07/31 01:33:14;;;;;;;3.67;1.30;;;;;;;17.99;55.73;99370.25;5053485;28;20055;-63
2021/07/31 01:35:41;;;;;;;2.78;1.15;;;;;;;18.23;54.78;99369.63;5052450;28;20064;-63
2021/07/31 01:38:08;;;;;;;3.97;1.20;;;;;;;18.22;55.22;99379.25;5053192;28;20440;-63
2021/07/31 01:40:37;;;;;;;5.75;1.73;;;;;;;18.22;54.58;99376.44;5052395;28;20045;-63
2021/07/31 01:43:04;;;;;;;4.05;1.25;;;;;;;18.19;55.10;99351.88;5053037;28;20049;-63
2021/07/31 01:45:32;;;;;;;5.35;1.50;;;;;;;18.06;55.37;99359.06;5052900;28;20057;-63
2021/07/31 01:47:59;;;;;;;3.88;1.20;;;;;;;18.23;54.87;99363.97;5053119;28;20064;-63
2021/07/31 01:50:26;;;;;;;7.70;1.30;;;;;;;18.09;55.45;99358.25;5052418;28;20061;-63
2021/07/31 01:52:54;;;;;;;3.90;1.50;;;;;;;18.02;55.79;99364.66;5053259;28;20056;-63
2021/07/31 01:55:21;;;;;;;4.72;1.40;;;;;;;18.29;54.88;99355.13;5052795;28;20045;-63
2021/07/31 01:57:50;;;;;;;5.38;1.60;;;;;;;18.28;54.91;99362.00;5052759;28;20044;-63
2021/07/31 02:00:18;;;;;;;3.43;1.67;;;;;;;18.28;54.98;99370.44;5052482;28;20064;-63
2021/07/31 02:02:47;;;;;;;2.85;1.20;;;;;;;18.30;54.92;99351.94;5052615;28;20398;-63
2021/07/31 02:05:15;;;;;;;3.53;1.23;;;;;;;18.36;54.88;99360.84;5051489;28;20163;-63
2021/07/31 02:07:42;;;;;;;3.08;1.30;;;;;;;18.13;55.44;99347.81;5053355;28;20053;-63
2021/07/31 02:10:10;;;;;;;4.57;1.30;;;;;;;18.13;55.29;99358.28;5052870;28;20049;-63
2021/07/31 02:12:38;;;;;;;3.53;1.30;;;;;;;18.24;55.13;99345.84;5051701;28;20053;-63
2021/07/31 02:15:08;;;;;;;4.63;1.67;;;;;;;18.04;55.73;99347.34;5052894;28;20052;-63
2021/07/31 02:17:36;;;;;;;3.85;1.60;;;;;;;18.09;55.70;99352.59;5052769;28;20057;-63
2021/07/31 02:20:04;;;;;;;3.25;1.17;;;;;;;17.92;56.38;99358.94;5052870;28;20057;-63
2021/07/31 02:22:31;;;;;;;4.00;1.40;;;;;;;17.85;56.75;99343.59;5052495;28;20052;-63
2021/07/31 02:24:58;;;;;;;4.78;1.40;;;;;;;17.89;56.57;99354.06;5052570;28;20063;-63
2021/07/31 02:27:26;;;;;;;3.10;1.50;;;;;;;17.79;56.68;99349.97;5052812;28;20057;-63
2021/07/31 02:29:53;;;;;;;6.25;1.73;;;;;;;17.58;57.49;99348.59;5053220;28;20048;-63
2021/07/31 02:32:22;;;;;;;4.72;1.40;;;;;;;17.60;57.48;99346.19;5052361;28;20045;-63
2021/07/31 02:34:50;;;;;;;3.00;1.57;;;;;;;17.53;57.79;99365.03;5051943;28;20401;-63
2021/07/31 02:37:17;;;;;;;4.25;1.35;;;;;;;17.68;57.37;99337.78;5052101;28;21014;-63
2021/07/31 02:39:44;;;;;;;3.92;1.50;;;;;;;17.64;57.28;99355.47;5052972;28;20057;-63
2021/07/31 02:42:12;;;;;;;5.60;1.55;;;;;;;17.56;57.76;99341.75;5052612;28;20051;-63
2021/07/31 02:44:39;;;;;;;3.85;1.45;;;;;;;17.58;57.68;99340.16;5051439;28;20057;-63
2021/07/31 02:47:06;;;;;;;5.75;1.65;;;;;;;17.49;57.95;99339.69;5053162;28;20053;-63
2021/07/31 02:49:35;;;;;;;4.43;1.75;;;;;;;17.54;57.96;99338.50;5051959;28;20049;-63
2021/07/31 02:52:03;;;;;;;3.85;1.40;;;;;;;17.76;57.18;99339.47;5052400;28;20060;-63
2021/07/31 02:54:30;;;;;;;3.95;1.30;;;;;;;17.80;57.36;99340.31;5051677;28;20053;-63
2021/07/31 02:56:58;;;;;;;4.72;1.83;;;;;;;17.79;57.47;99342.31;5052506;28;20049;-63
2021/07/31 02:59:25;;;;;;;7.30;2.15;;;;;;;17.82;57.59;99335.91;5051875;28;20057;-63
2021/07/31 03:01:53;;;;;;;4.38;1.45;;;;;;;17.90;57.08;99345.25;5050387;28;20481;-63
2021/07/31 03:04:20;;;;;;;3.55;1.58;;;;;;;17.96;56.75;99332.41;5051004;28;20056;-63
2021/07/31 03:06:51;;;;;;;4.20;1.88;;;;;;;17.98;56.72;99324.38;5052413;28;20053;-64
2021/07/31 03:09:18;;;;;;;2.83;1.52;;;;;;;17.93;56.77;99330.38;5052153;28;20060;-63
2021/07/31 03:11:46;;;;;;;4.43;1.67;;;;;;;17.85;57.14;99326.69;5051947;28;20053;-63
2021/07/31 03:14:13;;;;;;;5.40;1.50;;;;;;;17.93;56.99;99332.38;5051643;28;20045;-63
2021/07/31 03:16:41;;;;;;;4.03;1.83;;;;;;;17.93;56.77;99327.56;5054503;28;20060;-64
2021/07/31 03:19:08;;;;;;;5.60;1.65;;;;;;;17.95;56.81;99324.34;5056228;28;20048;-64
2021/07/31 03:21:35;;;;;;;4.78;1.58;;;;;;;17.68;57.46;99315.25;5056256;28;20405;-64
2021/07/31 03:24:06;;;;;;;2.92;1.20;;;;;;;17.87;57.20;99305.78;5055476;28;20044;-64
2021/07/31 03:26:33;;;;;;;3.80;1.50;;;;;;;17.97;56.67;99299.41;5055667;28;20069;-64
2021/07/31 03:29:00;;;;;;;4.13;1.30;;;;;;;18.00;56.37;99305.06;5056137;28;20056;-63
2021/07/31 03:31:28;;;;;;;3.47;2.05;;;;;;;18.09;56.24;99299.06;5055935;28;20061;-64
2021/07/31 03:33:55;;;;;;;4.88;1.40;;;;;;;18.03;56.35;99309.09;5055273;28;20397;-64
2021/07/31 03:36:22;;;;;;;3.40;1.63;;;;;;;17.94;56.49;99303.81;5055440;28;20049;-63
2021/07/31 03:38:50;;;;;;;3.70;1.70;;;;;;;17.91;56.30;99300.97;5055675;28;20049;-64
2021/07/31 03:41:21;;;;;;;3.58;1.35;;;;;;;17.93;56.37;99316.31;5055495;28;20057;-64
2021/07/31 03:43:48;;;;;;;4.13;1.58;;;;;;;17.96;56.15;99318.31;5055102;28;20045;-63
2021/07/31 03:46:15;;;;;;;5.72;1.80;;;;;;;17.95;56.12;99301.81;5055251;28;20060;-63
2021/07/31 03:48:43;;;;;;;3.60;1.48;;;;;;;17.83;56.50;99300.13;5055651;28;20105;-63
2021/07/31 03:51:10;;;;;;;3.85;1.35;;;;;;;17.78;56.50;99309.72;5055783;28;20064;-63
2021/07/31 03:53:37;;;;;;;6.07;1.80;;;;;;;17.85;56.68;99321.06;5055069;28;20056;-64
2021/07/31 03:56:05;;;;;;;3.03;1.33;;;;;;;17.86;56.36;99310.59;5055397;28;20049;-63
2021/07/31 03:58:34;;;;;;;2.83;1.40;;;;;;;17.83;56.50;99315.03;5054769;28;20052;-63
2021/07/31 04:01:02;;;;;;;3.05;1.50;;;;;;;17.84;56.28;99299.72;5055341;28;20500;-63
2021/07/31 04:03:29;;;;;;;3.25;1.40;;;;;;;17.59;56.93;99307.97;5055056;28;20492;-63
2021/07/31 04:05:56;;;;;;;3.30;1.40;;;;;;;17.59;57.02;99307.16;5054584;28;20052;-63
2021/07/31 04:08:24;;;;;;;2.90;1.45;;;;;;;17.62;57.02;99309.22;5054581;28;20057;-64
2021/07/31 04:10:51;;;;;;;3.08;1.50;;;;;;;17.47;57.55;99311.09;5054997;28;20053;-64
2021/07/31 04:13:18;;;;;;;3.10;1.52;;;;;;;17.47;57.66;99301.81;5054908;28;20056;-64
2021/07/31 04:15:47;;;;;;;4.07;1.50;;;;;;;17.50;57.38;99303.88;5054252;28;20143;-63
2021/07/31 04:18:17;;;;;;;4.38;1.63;;;;;;;17.64;57.01;99304.00;5055061;28;20055;-64
2021/07/31 04:20:44;;;;;;;;;;;;;;;17.56;57.16;99305.13;5054847;28;20056;-64
2021/07/31 04:23:11;;;;;;;4.00;1.60;;;;;;;17.57;57.29;99304.72;5054685;28;20288;-64
2021/07/31 04:25:38;;;;;;;8.38;1.75;;;;;;;17.67;57.06;99308.03;5054320;28;20048;-64
2021/07/31 04:28:06;;;;;;;6.40;1.80;;;;;;;17.70;57.12;99307.22;5053152;28;20410;-64
2021/07/31 04:30:35;;;;;;;4.05;1.50;;;;;;;17.84;56.48;99307.38;5054159;28;20438;-63
2021/07/31 04:33:03;;;;;;;3.00;1.20;;;;;;;17.80;56.56;99312.94;5044532;28;20053;-63
2021/07/31 04:35:31;;;;;;;4.00;1.80;;;;;;;17.67;57.18;99311.66;5052253;28;20056;-63
2021/07/31 04:37:58;;;;;;;5.63;1.65;;;;;;;17.70;57.06;99319.34;5054518;28;20053;-63
2021/07/31 04:40:25;;;;;;;5.57;1.90;;;;;;;17.73;57.09;99324.16;5054108;28;20053;-64
2021/07/31 04:42:52;;;;;;;3.22;1.50;;;;;;;17.81;56.77;99323.03;5054615;28;20128;-63
2021/07/31 04:45:20;;;;;;;3.88;1.58;;;;;;;17.55;57.67;99324.00;5054070;28;20048;-63
2021/07/31 04:47:47;;;;;;;5.20;1.98;;;;;;;17.65;57.43;99333.75;5054125;28;20076;-63
2021/07/31 04:50:16;;;;;;;3.83;1.80;;;;;;;17.84;57.01;99318.63;5054198;28;20509;-63
2021/07/31 04:52:43;;;;;;;5.35;2.13;;;;;;;17.91;56.75;99312.22;5054048;28;20055;-63
2021/07/31 04:55:13;;;;;;;2.78;1.52;;;;;;;17.87;57.09;99317.03;5052696;28;20049;-64
2021/07/31 04:57:41;;;;;;;5.00;1.70;;;;;;;17.80;56.95;99338.28;5053378;28;20053;-63
2021/07/31 05:00:09;;;;;;;3.22;1.80;;;;;;;17.86;57.12;99316.25;5054029;28;20053;-63
2021/07/31 05:02:37;;;;;;;2.53;1.40;;;;;;;18.08;56.23;99316.38;5053916;28;20053;-63
2021/07/31 05:05:04;;;;;;;5.15;1.98;;;;;;;18.12;56.28;99315.22;5053553;28;20068;-63
2021/07/31 05:07:33;;;;;;;3.03;1.70;;;;;;;18.01;56.31;99319.94;5053764;28;20068;-63
2021/07/31 05:10:00;;;;;;;4.10;1.58;;;;;;;18.22;55.95;99328.53;5053850;28;20060;-63
2021/07/31 05:12:27;;;;;;;3.47;1.83;;;;;;;18.26;55.75;99332.16;5043439;28;20045;-64
2021/07/31 05:14:55;;;;;;;5.60;1.80;;;;;;;18.15;55.95;99342.59;5043941;28;20060;-63
2021/07/31 05:17:22;;;;;;;4.72;1.30;;;;;;;18.30;55.60;99334.22;5053986;28;20052;-63
2021/07/31 05:19:49;;;;;;;4.15;1.70;;;;;;;18.10;56.30;99353.41;5053453;28;20064;-63
2021/07/31 05:22:18;;;;;;;5.72;1.70;;;;;;;18.25;55.93;99352.31;5054241;28;20061;-63
2021/07/31 05:24:53;;;;;;;6.57;1.95;;;;;;;18.12;56.36;99346.19;5053199;28;20049;-64
2021/07/31 05:27:20;;;;;;;3.85;1.67;;;;;;;18.14;56.28;99343.81;5053945;28;20064;-64
2021/07/31 05:29:47;;;;;;;3.58;1.60;;;;;;;18.04;56.68;99361.44;5053170;28;20070;-64
2021/07/31 05:32:14;;;;;;;3.85;1.88;;;;;;;18.04;56.85;99350.19;5053837;28;20379;-64
2021/07/31 05:34:42;;;;;;;5.25;1.88;;;;;;;18.19;56.51;99351.88;5052801;28;20048;-64
2021/07/31 05:37:12;;;;;;;4.53;1.70;;;;;;;18.33;56.21;99355.97;5053579;28;20057;-64
2021/07/31 05:39:39;;;;;;;3.72;1.85;;;;;;;18.49;55.59;99364.91;5053087;28;20049;-64
2021/07/31 05:42:14;;;;;;;3.08;1.58;;;;;;;18.45;55.89;99350.78;5053876;28;20048;-64
2021/07/31 05:44:41;;;;;;;5.00;2.00;;;;;;;18.48;55.66;99360.50;5052794;28;20375;-64
2021/07/31 05:47:09;;;;;;;3.65;2.03;;;;;;;18.60;55.31;99351.66;5053351;28;20478;-64
2021/07/31 05:49:36;;;;;;;4.97;2.10;;;;;;;18.41;56.18;99358.41;5053337;28;20082;-64
2021/07/31 05:52:07;;;;;;;4.05;1.88;;;;;;;18.38;56.30;99352.78;5049412;28;20064;-64
2021/07/31 05:54:36;;;;;;;3.47;1.88;;;;;;;18.50;56.07;99360.91;5052490;28;20049;-64
2021/07/31 05:57:04;;;;;;;3.97;1.92;;;;;;;18.66;55.42;99369.81;5053220;28;20072;-64
2021/07/31 05:59:35;;;;;;;3.53;1.88;;;;;;;18.62;55.38;99374.63;5052502;28;20076;-64
2021/07/31 06:02:03;;;;;;;3.78;2.00;;;;;;;18.63;55.46;99367.00;5052608;28;20398;-64
2021/07/31 06:04:30;;;;;;;4.07;2.00;;;;;;;18.48;55.66;99365.31;5050531;28;20045;-64
2021/07/31 06:06:59;;;;;;;4.03;1.98;;;;;;;18.37;56.31;99368.91;5053056;28;20064;-64
2021/07/31 06:09:27;;;;;;;11.63;2.22;;;;;;;18.49;55.99;99367.72;5050944;28;20513;-64
2021/07/31 06:11:54;;;;;;;5.90;2.15;;;;;;;18.56;55.95;99364.13;5046010;28;20049;-64
2021/07/31 06:14:27;;;;;;;4.88;1.73;;;;;;;18.59;55.88;99355.69;5052840;28;20060;-64
2021/07/31 06:16:56;;;;;;;3.25;1.70;;;;;;;18.64;55.91;99372.22;5052574;28;20097;-64
2021/07/31 06:19:23;;;;;;;3.67;1.70;;;;;;;18.89;55.22;99367.94;5052954;28;20049;-64
2021/07/31 06:21:50;;;;;;;4.25;1.80;;;;;;;18.82;55.35;99405.41;5051415;28;20056;-64
2021/07/31 06:24:18;;;;;;;4.95;2.13;;;;;;;18.84;55.18;99375.56;5052378;28;20064;-64
2021/07/31 06:26:45;;;;;;;3.67;1.80;;;;;;;18.79;55.62;99377.97;5052950;28;20393;-64
2021/07/31 06:29:12;;;;;;;3.40;2.10;;;;;;;19.01;54.92;99376.03;5052384;28;20063;-64
2021/07/31 06:31:39;;;;;;;2.83;1.67;;;;;;;19.06;54.48;99382.09;5050039;28;20049;-64
2021/07/31 06:34:10;;;;;;;3.33;1.60;;;;;;;18.99;54.84;99375.63;5052693;28;20049;-64
2021/07/31 06:36:39;;;;;;;3.63;1.60;;;;;;;18.93;55.15;99389.31;5050590;28;20057;-64
2021/07/31 06:39:07;;;;;;;3.08;1.50;;;;;;;19.03;55.04;99376.44;5052124;28;20052;-64
2021/07/31 06:41:34;;;;;;;4.28;1.83;;;;;;;19.11;54.72;99382.91;5050939;28;20049;-64
2021/07/31 06:44:02;;;;;;;3.45;1.75;;;;;;;19.15;54.69;99378.06;5052508;28;20052;-64
2021/07/31 06:46:29;;;;;;;4.05;1.70;;;;;;;19.15;54.71;99366.78;5050418;28;20057;-64
2021/07/31 06:48:57;;;;;;;4.03;1.63;;;;;;;19.67;53.19;99379.38;5051779;28;20064;-64
2021/07/31 06:51:26;;;;;;;4.40;1.80;;;;;;;20.10;51.79;99387.06;5050197;28;20053;-64
2021/07/31 06:53:53;;;;;;;3.43;1.73;;;;;;;19.67;52.96;99387.03;5050194;28;20057;-64
2021/07/31 06:56:20;;;;;;;2.70;1.65;;;;;;;19.54;53.24;99389.44;5051494;28;20498;-64
2021/07/31 06:58:48;;;;;;;4.13;1.52;;;;;;;19.47;53.46;99383.81;5051597;28;20120;-64
2021/07/31 07:01:16;;;;;;;3.10;1.48;;;;;;;19.37;53.77;99379.75;5050873;28;20044;-63
2021/07/31 07:03:43;;;;;;;4.25;1.48;;;;;;;19.71;52.57;99389.91;5051504;28;20053;-63
2021/07/31 07:06:11;;;;;;;4.00;1.85;;;;;;;19.42;53.92;99416.06;5052195;28;20493;-63
2021/07/31 07:08:40;;;;;;;4.28;1.92;;;;;;;19.24;54.07;99382.13;5052197;28;20057;-63
2021/07/31 07:11:13;;;;;;;3.80;1.60;;;;;;;19.79;53.11;99395.13;5052141;28;20057;-63
2021/07/31 07:13:40;;;;;;;4.38;1.98;;;;;;;19.94;52.67;99397.97;5031787;28;20475;-64
2021/07/31 07:16:08;;;;;;;4.72;1.67;;;;;;;20.13;52.25;99403.19;5043272;28;20055;-63
2021/07/31 07:18:36;;;;;;;5.65;2.05;;;;;;;20.04;52.24;99405.63;5051813;28;20052;-63
2021/07/31 07:21:04;;;;;;;6.82;1.92;;;;;;;20.11;52.42;99408.44;5051849;28;20406;-63
2021/07/31 07:23:32;;;;;;;4.20;1.95;;;;;;;19.51;53.45;99412.03;5047671;28;20041;-63
2021/07/31 07:26:01;;;;;;;3.70;1.70;;;;;;;19.67;53.31;99404.81;5033255;28;20056;-62
2021/07/31 07:28:28;;;;;;;4.38;2.17;;;;;;;19.59;53.88;99405.19;5050097;28;20541;-63
2021/07/31 07:30:56;;;;;;;3.70;1.67;;;;;;;19.98;52.84;99407.25;5042594;28;20061;-63
2021/07/31 07:33:23;;;;;;;3.10;1.70;;;;;;;20.26;52.23;99410.06;5041100;28;20045;-63
2021/07/31 07:35:51;;;;;;;5.50;1.90;;;;;;;20.18;52.27;99411.28;5049598;28;20470;-63
2021/07/31 07:38:19;;;;;;;4.10;1.98;;;;;;;20.67;50.89;99408.78;5050991;28;20064;-63
2021/07/31 07:40:46;;;;;;;4.22;1.70;;;;;;;20.77;50.81;99421.28;5051480;28;20064;-63
2021/07/31 07:43:15;;;;;;;4.53;2.13;;;;;;;20.72;50.50;99428.16;5051434;28;20123;-63
2021/07/31 07:45:44;;;;;;;3.90;1.88;;;;;;;20.97;50.06;99411.06;5048136;28;20041;-63
2021/07/31 07:48:11;;;;;;;4.25;1.95;;;;;;;21.93;47.19;99413.75;5050784;28;20088;-63
2021/07/31 07:50:41;;;;;;;4.30;1.70;;;;;;;22.03;47.36;99421.38;5050454;28;20072;-63
2021/07/31 07:53:11;;;;;;;3.33;2.10;;;;;;;21.89;47.51;99431.56;5049902;28;20044;-63
2021/07/31 07:55:38;;;;;;;4.00;2.08;;;;;;;21.26;48.88;99430.75;5050554;28;20406;-63
2021/07/31 07:58:09;;;;;;;5.63;1.98;;;;;;;21.29;49.07;99432.75;5050989;28;20128;-63
2021/07/31 08:00:38;;;;;;;2.70;1.50;;;;;;;20.90;50.43;99428.09;5047459;28;20482;-63
2021/07/31 08:03:07;;;;;;;6.18;1.90;;;;;;;21.16;49.35;99425.97;5052375;28;20056;-63
2021/07/31 08:05:37;;;;;;;6.07;1.73;;;;;;;21.60;48.36;99433.00;5040145;28;20050;-63
2021/07/31 08:08:05;;;;;;;3.95;1.83;;;;;;;21.91;47.65;99430.38;5050839;28;20502;-63
2021/07/31 08:10:33;;;;;;;4.15;1.80;;;;;;;22.14;47.19;99422.06;5052672;28;20049;-63
2021/07/31 08:13:01;;;;;;;5.43;2.15;;;;;;;22.75;46.03;99426.34;5052968;28;20045;-64
2021/07/31 08:15:29;;;;;;;3.00;1.35;;;;;;;23.58;42.77;99424.06;5052263;28;20483;-64
2021/07/31 08:17:57;;;;;;;2.80;1.77;;;;;;;23.26;43.95;99427.34;5053715;28;20056;-64
2021/07/31 08:20:25;;;;;;;3.45;1.67;;;;;;;23.64;42.96;99419.47;5053520;28;20501;-64
2021/07/31 08:22:52;;;;;;;5.45;1.75;;;;;;;23.82;42.84;99432.66;5054628;28;20045;-64
2021/07/31 08:25:19;;;;;;;3.45;1.58;;;;;;;24.14;40.65;99420.72;5054896;28;20049;-64
2021/07/31 08:27:47;;;;;;;2.42;1.67;;;;;;;25.57;39.04;99419.13;5054784;28;20060;-64
2021/07/31 08:30:14;;;;;;;5.22;1.90;;;;;;;26.15;37.29;99421.44;5054790;28;20063;-64
2021/07/31 08:32:44;;;;;;;3.47;1.67;;;;;;;26.54;36.36;99437.50;5054780;28;20482;-64
2021/07/31 08:35:29;;;;;;;3.20;1.42;;;;;;;27.21;34.92;99418.91;5058747;28;20033;-65
2021/07/31 08:38:01;;;;;;;4.65;1.92;;;;;;;27.51;35.01;99431.91;5054394;28;20057;-64
2021/07/31 08:40:29;;;;;;;4.32;1.50;;;;;;;27.86;33.57;99421.41;5054587;28;20418;-64
2021/07/31 08:42:56;;;;;;;3.57;2.00;;;;;;;28.43;32.88;99423.56;5054508;28;20072;-64
2021/07/31 08:45:24;;;;;;;3.85;1.65;;;;;;;28.64;31.98;99427.78;5054043;28;20057;-64
2021/07/31 08:47:52;;;;;;;4.57;1.40;;;;;;;29.17;31.94;99435.69;5053764;28;20063;-64
2021/07/31 08:50:22;;;;;;;6.88;1.65;;;;;;;28.49;32.24;99430.34;5053884;28;20494;-64
2021/07/31 08:52:52;;;;;;;3.80;1.80;;;;;;;28.37;32.87;99420.53;5054002;28;20061;-64
2021/07/31 08:55:20;;;;;;;4.82;1.80;;;;;;;29.79;30.19;99435.72;5053936;28;20053;-64
2021/07/31 08:57:47;;;;;;;3.47;1.83;;;;;;;30.00;29.53;99430.38;5054162;28;20056;-64
2021/07/31 09:00:15;;;;;;;2.17;1.88;;;;;;;31.13;28.57;99438.19;5053932;28;20064;-64
2021/07/31 09:02:44;;;;;;;3.83;1.67;;;;;;;30.43;29.04;99437.19;5053955;28;20160;-64
2021/07/31 09:05:12;;;;;;;5.70;2.00;;;;;;;30.24;28.81;99448.66;5054370;28;20053;-65
2021/07/31 09:07:40;;;;;;;3.38;1.45;;;;;;;31.54;27.26;99437.94;5055489;28;20059;-64
2021/07/31 09:10:27;;;;;;;2.95;1.50;;;;;;;30.38;28.07;99455.06;5053713;28;20056;-64
2021/07/31 09:12:55;;;;;;;7.85;1.60;;;;;;;28.07;31.45;99437.06;5053505;28;20490;-64
2021/07/31 09:15:34;;;;;;;3.55;1.60;;;;;;;26.56;34.26;99449.28;5054107;28;20048;-63
2021/07/31 09:18:22;;;;;;;3.65;1.77;;;;;;;25.09;37.13;99462.09;5054036;28;20599;-63
2021/07/31 09:21:04;;;;;;;3.97;1.67;;;;;;;23.56;41.07;99451.28;5052544;28;20056;-63
2021/07/31 09:23:44;;;;;;;2.80;1.55;;;;;;;23.90;40.98;99457.69;5053451;28;20105;-63
2021/07/31 09:26:15;;;;;;;4.53;2.10;;;;;;;26.91;34.98;99455.31;5053938;28;20060;-63
2021/07/31 09:28:43;;;;;;;3.83;1.75;;;;;;;26.47;35.31;99457.69;5053609;28;20060;-63
2021/07/31 09:31:16;;;;;;;7.07;1.53;;;;;;;24.51;38.91;99455.91;5053869;28;20057;-63
2021/07/31 09:33:46;;;;;;;4.60;1.48;;;;;;;25.47;37.75;99453.16;5053390;28;20505;-65
2021/07/31 09:36:14;;;;;;;3.97;1.50;;;;;;;26.90;35.04;99450.84;5053170;28;20521;-65
2021/07/31 09:38:43;;;;;;;2.72;1.30;;;;;;;25.95;36.22;99461.47;5053909;28;20052;-65
2021/07/31 09:41:32;;;;;;;4.45;1.58;;;;;;;26.57;35.00;99470.91;5049397;28;20493;-63
2021/07/31 09:44:00;;;;;;;;;;;;;;;26.00;35.81;99466.66;5051297;28;20049;-63
2021/07/31 09:46:36;;;;;;;3.50;1.52;;;;;;;25.91;36.84;99464.38;5053129;28;20392;-63
2021/07/31 09:49:05;;;;;;;2.60;1.58;;;;;;;25.56;36.97;99466.03;5052658;28;20052;-65
2021/07/31 09:51:34;;;;;;;4.53;1.92;;;;;;;26.16;35.95;99457.28;5045645;28;20061;-65
2021/07/31 09:54:02;;;;;;;4.07;1.33;;;;;;;24.87;38.43;99467.41;5047932;28;20060;-63
2021/07/31 09:56:32;;;;;;;3.92;1.70;;;;;;;24.95;38.00;99462.38;5049508;28;20060;-63
2021/07/31 09:59:00;;;;;;;5.35;1.63;;;;;;;24.58;38.55;99461.44;5052806;28;20049;-63
2021/07/31 10:01:30;;;;;;;3.58;1.50;;;;;;;24.67;38.58;99460.88;5050369;28;20409;-63
2021/07/31 10:03:57;;;;;;;;;;;;;;;24.47;39.15;99466.50;5035807;28;20057;-63
2021/07/31 10:06:26;;;;;;;3.28;1.40;;;;;;;23.75;41.20;99478.22;5052820;28;19928;-64
2021/07/31 10:08:53;;;;;;;3.55;1.40;;;;;;;23.27;42.10;99465.91;5053272;28;20058;-65
2021/07/31 10:11:21;;;;;;;4.68;1.70;;;;;;;23.15;42.52;99470.09;5053186;28;20048;-66
2021/07/31 10:13:50;;;;;;;3.35;1.58;;;;;;;23.15;42.32;99474.97;5052713;28;20505;-64
2021/07/31 10:16:18;;;;;;;3.33;1.55;;;;;;;23.26;42.62;99469.97;5052326;28;20049;-67
2021/07/31 10:18:57;;;;;;;3.58;1.77;;;;;;;22.51;43.93;99477.28;5052356;28;20482;-64
2021/07/31 10:21:25;;;;;;;2.90;1.43;;;;;;;22.43;44.52;99475.75;5052589;28;20517;-64
2021/07/31 10:24:00;;;;;;;2.55;1.40;;;;;;;22.57;44.46;99492.59;5051776;28;20053;-65
2021/07/31 10:26:29;;;;;;;5.70;1.67;;;;;;;22.50;44.86;99496.31;5052414;28;20466;-65
2021/07/31 10:29:36;;;;;;;3.58;1.60;;;;;;;22.49;44.33;99497.56;5051689;28;20045;-64
2021/07/31 10:32:40;;;;;;;5.38;2.03;;;;;;;22.34;45.34;99504.56;5052522;28;20049;-64
2021/07/31 10:35:09;;;;;;;3.15;1.60;;;;;;;23.11;43.84;99497.75;5051273;28;20519;-64
2021/07/31 10:37:45;;;;;;;3.53;1.70;;;;;;;22.97;44.09;99512.88;5051812;28;20071;-64
2021/07/31 10:40:34;;;;;;;2.88;1.40;;;;;;;22.54;43.83;99510.50;5052625;28;20061;-64
2021/07/31 10:43:05;;;;;;;3.03;1.30;;;;;;;22.33;44.67;99505.00;5051878;28;20049;-64
2021/07/31 10:45:34;;;;;;;3.45;1.70;;;;;;;22.33;45.03;99507.84;5052264;28;20059;-64
2021/07/31 10:48:02;;;;;;;;;;;;;;;22.28;45.09;99509.91;5052616;28;20060;-64
2021/07/31 10:50:36;;;;;;;4.15;1.63;;;;;;;22.43;44.90;99521.16;5039601;28;19921;-64
2021/07/31 10:53:05;;;;;;;5.97;1.40;;;;;;;21.74;46.70;99515.13;5032303;28;20058;-64
2021/07/31 10:56:03;;;;;;;5.80;1.85;;;;;;;22.05;45.88;99513.28;5034126;28;20061;-64
2021/07/31 10:58:32;;;;;;;3.30;1.45;;;;;;;22.16;46.14;99509.56;4986602;28;20062;-64
2021/07/31 11:01:26;;;;;;;5.78;1.50;;;;;;;22.32;44.90;99518.38;5026373;28;20052;-64
2021/07/31 11:03:53;;;;;;;3.83;1.50;;;;;;;22.61;44.74;99518.91;5048779;28;20053;-64
2021/07/31 11:06:20;;;;;;;4.43;1.60;;;;;;;22.95;43.70;99523.88;5046857;28;20474;-64
2021/07/31 11:09:16;;;;;;;3.20;1.85;;;;;;;24.76;40.17;99518.09;5049321;28;20069;-64
2021/07/31 11:11:43;;;;;;;3.53;1.70;;;;;;;24.70;39.18;99525.50;5052648;28;20053;-65
2021/07/31 11:14:11;;;;;;;4.22;1.60;;;;;;;24.48;40.67;99513.66;5051714;28;20060;-64
2021/07/31 11:16:40;;;;;;;2.75;1.42;;;;;;;24.91;39.22;99515.78;5050411;28;21919;-65
2021/07/31 11:19:07;;;;;;;3.00;1.38;;;;;;;24.41;39.52;99525.19;5050587;28;20393;-65
2021/07/31 11:21:38;;;;;;;4.05;1.48;;;;;;;24.15;40.16;99530.47;5049969;28;20049;-65
2021/07/31 11:24:07;;;;;;;3.40;1.33;;;;;;;24.05;40.40;99518.03;5051614;28;20478;-65
2021/07/31 11:26:41;;;;;;;4.15;1.42;;;;;;;24.23;40.51;99517.75;5052902;28;20493;-65
2021/07/31 11:29:11;;;;;;;3.38;1.33;;;;;;;24.14;40.64;99523.16;5052004;28;20049;-65
2021/07/31 11:31:45;;;;;;;4.45;1.45;;;;;;;23.58;41.67;99526.41;5052416;28;20382;-64
2021/07/31 11:34:13;;;;;;;5.35;1.48;;;;;;;23.08;43.56;99527.81;5050386;28;20049;-64
2021/07/31 11:36:43;;;;;;;3.70;1.30;;;;;;;23.20;43.52;99537.00;5049702;28;20056;-64
2021/07/31 11:39:11;;;;;;;4.03;1.38;;;;;;;23.19;43.30;99533.38;5051913;28;20501;-64
2021/07/31 11:41:40;;;;;;;4.32;1.85;;;;;;;24.08;41.19;99522.84;5036604;28;20057;-64
2021/07/31 11:44:09;;;;;;;4.88;2.53;;;;;;;26.06;37.21;99516.22;5036045;28;20060;-65